Van, Turkey
Current Conditions -  °F | °C
As of 12:50 AM on Tuesday 23 Dec 2014 (Local Time) from LTCI Reporting Station
Light Snow Light Snow  
Wind Chill: 30°   Ceiling: 2500
Heat Index: 30°   Visibility: 2.5mi
Dew Point: 30°   Wind: 0mph
Humidity: 100%   Direction: NA
Pressure: 29.88"   Gusts: NA
Location:  38.49°N, 43.4°E
Report Text: LTCI 222150Z 00000KT 4000 -SN BR FEW015 BKN025 OVC060 M01/M01 Q1012 NOSIG
Loading
Personal Weather Stations






























Interactive Weather Map New forecast layout! Learn more

10-Day Weather Forecast

Advertisements
Track Severe Weather on mobile